Time;durP1;ratioP1;P1;durP2;ratioP2;P2;SDS_P1;SDS_P2;PMS_P1;PMS_P2;Temp;Humidity;BMP_temperature;BMP_pressure;BME280_temperature;BME280_humidity;BME280_pressure;Samples;Min_cycle;Max_cycle;Signal;HPM_P1;HPM_P2
2023/08/09 00:01:36;;;;;;;9.50;1.53;;;;;;;;;;5066168;28;20016;-63
2023/08/09 00:04:03;;;;;;;2.63;1.50;;;;;;;;;;5068241;28;20032;-63
2023/08/09 00:06:30;;;;;;;1.57;1.20;;;;;;;;;;5071587;28;20032;-63
2023/08/09 00:08:57;;;;;;;2.17;1.60;;;;;;;;;;5071423;28;20090;-63
2023/08/09 00:11:23;;;;;;;2.33;1.50;;;;;;;;;;5071455;28;20395;-63
2023/08/09 00:13:50;;;;;;;3.17;1.80;;;;;;;;;;5071763;28;20031;-63
2023/08/09 00:16:17;;;;;;;4.77;2.37;;;;;;;;;;5071932;28;20081;-63
2023/08/09 00:18:44;;;;;;;2.67;1.60;;;;;;;;;;5069638;28;20016;-63
2023/08/09 00:21:11;;;;;;;1.33;1.13;;;;;;;;;;5069545;28;20545;-63
2023/08/09 00:23:38;;;;;;;4.00;2.43;;;;;;;;;;5069612;28;20379;-63
2023/08/09 00:26:05;;;;;;;2.87;1.80;;;;;;;;;;5070606;28;20039;-63
2023/08/09 00:28:31;;;;;;;11.23;2.70;;;;;;;;;;5074841;28;20025;-63
2023/08/09 00:30:58;;;;;;;3.03;1.73;;;;;;;;;;5074350;28;20044;-63
2023/08/09 00:33:25;;;;;;;4.07;2.33;;;;;;;;;;5074496;28;20117;-63
2023/08/09 00:35:52;;;;;;;2.40;1.60;;;;;;;;;;5074660;28;20029;-63
2023/08/09 00:38:18;;;;;;;2.87;1.50;;;;;;;;;;5072254;28;20028;-63
2023/08/09 00:40:45;;;;;;;3.00;1.67;;;;;;;;;;5068962;28;20074;-62
2023/08/09 00:43:12;;;;;;;2.33;1.53;;;;;;;;;;5049304;28;20025;-62
2023/08/09 00:45:42;;;;;;;9.40;2.07;;;;;;;;;;5049175;28;20104;-63
2023/08/09 00:48:09;;;;;;;2.90;1.83;;;;;;;;;;5050659;28;20487;-63
2023/08/09 00:50:36;;;;;;;1.97;1.27;;;;;;;;;;5054299;28;20047;-63
2023/08/09 00:53:03;;;;;;;2.53;1.60;;;;;;;;;;5058661;28;20093;-63
2023/08/09 00:55:30;;;;;;;2.60;1.70;;;;;;;;;;5074168;28;20348;-63
2023/08/09 00:57:56;;;;;;;6.80;2.07;;;;;;;;;;5074096;28;20123;-62
2023/08/09 01:00:23;;;;;;;8.33;2.43;;;;;;;;;;5072037;28;20024;-63
2023/08/09 01:02:50;;;;;;;2.50;1.70;;;;;;;;;;5068214;28;20051;-63
2023/08/09 01:05:17;;;;;;;3.07;1.83;;;;;;;;;;5068745;28;20028;-63
2023/08/09 01:07:47;;;;;;;2.87;1.57;;;;;;;;;;5068782;28;20028;-63
2023/08/09 01:10:16;;;;;;;1.47;1.10;;;;;;;;;;5070041;28;20111;-63
2023/08/09 01:12:47;;;;;;;6.00;2.20;;;;;;;;;;5073653;28;20111;-62
2023/08/09 01:15:16;;;;;;;15.40;2.03;;;;;;;;;;5073782;28;20020;-63
2023/08/09 01:17:46;;;;;;;2.73;1.80;;;;;;;;;;5073326;28;20031;-63
2023/08/09 01:20:13;;;;;;;4.40;2.37;;;;;;;;;;5073829;28;20490;-63
2023/08/09 01:22:45;;;;;;;2.40;1.77;;;;;;;;;;5071475;28;20028;-63
2023/08/09 01:25:12;;;;;;;10.30;3.30;;;;;;;;;;5068415;28;20027;-63
2023/08/09 01:27:39;;;;;;;3.67;2.53;;;;;;;;;;5067562;28;20017;-63
2023/08/09 01:30:08;;;;;;;4.50;2.47;;;;;;;;;;5067533;28;20131;-62
2023/08/09 01:32:35;;;;;;;4.37;2.67;;;;;;;;;;5069797;28;20039;-63
2023/08/09 01:35:02;;;;;;;10.87;1.87;;;;;;;;;;5073589;28;20029;-63
2023/08/09 01:37:35;;;;;;;8.00;2.87;;;;;;;;;;5073531;28;20103;-63
2023/08/09 01:40:10;;;;;;;4.50;2.47;;;;;;;;;;5073391;28;20021;-63
2023/08/09 01:42:40;;;;;;;5.07;2.93;;;;;;;;;;5072527;28;20024;-62
2023/08/09 01:45:08;;;;;;;6.03;2.23;;;;;;;;;;5070633;28;20504;-63
2023/08/09 01:47:35;;;;;;;12.40;3.70;;;;;;;;;;5067746;28;20109;-62
2023/08/09 01:50:02;;;;;;;4.53;2.30;;;;;;;;;;5067235;28;20029;-62
2023/08/09 01:52:29;;;;;;;5.43;3.37;;;;;;;;;;5067551;28;20663;-63
2023/08/09 01:54:56;;;;;;;7.97;2.80;;;;;;;;;;5070158;28;20029;-63
2023/08/09 01:57:23;;;;;;;11.37;2.57;;;;;;;;;;5072813;28;20032;-63
2023/08/09 01:59:49;;;;;;;3.73;2.40;;;;;;;;;;5072993;28;20028;-63
2023/08/09 02:02:16;;;;;;;3.63;2.33;;;;;;;;;;5072333;28;20150;-63
2023/08/09 02:04:43;;;;;;;9.90;3.00;;;;;;;;;;5072974;28;20481;-63
2023/08/09 02:07:10;;;;;;;10.30;2.50;;;;;;;;;;5070174;28;20105;-62
2023/08/09 02:09:37;;;;;;;3.03;2.07;;;;;;;;;;5067435;28;20497;-63
2023/08/09 02:12:04;;;;;;;3.37;2.00;;;;;;;;;;5066075;28;20048;-62
2023/08/09 02:14:31;;;;;;;2.70;1.83;;;;;;;;;;5067544;28;20052;-62
2023/08/09 02:16:59;;;;;;;6.70;3.03;;;;;;;;;;5069198;28;20025;-62
2023/08/09 02:19:26;;;;;;;2.77;1.73;;;;;;;;;;5072827;28;20079;-62
2023/08/09 02:21:52;;;;;;;5.03;2.17;;;;;;;;;;5072474;28;20367;-62
2023/08/09 02:24:21;;;;;;;3.57;2.43;;;;;;;;;;5072828;28;20436;-62
2023/08/09 02:26:48;;;;;;;3.03;2.03;;;;;;;;;;5072196;28;20107;-62
2023/08/09 02:29:15;;;;;;;9.77;2.20;;;;;;;;;;5070066;28;20425;-62
2023/08/09 02:31:42;;;;;;;2.17;1.63;;;;;;;;;;5066974;28;20032;-62
2023/08/09 02:34:09;;;;;;;1.77;1.37;;;;;;;;;;5066841;28;20013;-63
2023/08/09 02:36:36;;;;;;;11.90;2.27;;;;;;;;;;5066563;28;20028;-62
2023/08/09 02:39:05;;;;;;;5.47;2.37;;;;;;;;;;5068816;28;20048;-62
2023/08/09 02:41:32;;;;;;;1.87;1.63;;;;;;;;;;5071770;28;20494;-62
2023/08/09 02:43:58;;;;;;;4.37;1.63;;;;;;;;;;5072399;28;20048;-62
2023/08/09 02:46:25;;;;;;;3.77;2.10;;;;;;;;;;5072431;28;20024;-62
2023/08/09 02:48:52;;;;;;;4.60;1.80;;;;;;;;;;5072497;28;20047;-62
2023/08/09 02:51:19;;;;;;;1.67;1.30;;;;;;;;;;5069636;28;20033;-62
2023/08/09 02:54:17;;;;;;;2.17;1.60;;;;;;;;;;5066832;28;20027;-62
2023/08/09 02:56:44;;;;;;;1.50;1.20;;;;;;;;;;5011710;28;20040;-62
2023/08/09 02:59:11;;;;;;;3.90;2.00;;;;;;;;;;5066876;28;20024;-62
2023/08/09 03:01:38;;;;;;;2.60;1.80;;;;;;;;;;5069432;28;20036;-62
2023/08/09 03:04:05;;;;;;;3.07;2.00;;;;;;;;;;5072319;28;20020;-62
2023/08/09 03:06:32;;;;;;;2.87;1.70;;;;;;;;;;5071249;28;20021;-62
2023/08/09 03:08:59;;;;;;;3.40;2.03;;;;;;;;;;5071828;28;20024;-62
2023/08/09 03:11:26;;;;;;;2.70;1.37;;;;;;;;;;5071995;28;20032;-62
2023/08/09 03:13:53;;;;;;;1.80;1.47;;;;;;;;;;5069351;28;20060;-62
2023/08/09 03:16:20;;;;;;;9.97;1.80;;;;;;;;;;5066621;28;20728;-64
2023/08/09 03:18:47;;;;;;;2.30;1.63;;;;;;;;;;5066520;28;20055;-62
2023/08/09 03:21:14;;;;;;;8.50;1.73;;;;;;;;;;5066502;28;20024;-62
2023/08/09 03:23:41;;;;;;;2.33;1.40;;;;;;;;;;5068920;28;20093;-62
2023/08/09 03:26:08;;;;;;;1.80;1.23;;;;;;;;;;5071909;28;20099;-62
2023/08/09 03:28:36;;;;;;;2.20;1.57;;;;;;;;;;5071606;28;20035;-62
2023/08/09 03:31:03;;;;;;;4.37;1.50;;;;;;;;;;5071851;28;20426;-62
2023/08/09 03:33:30;;;;;;;2.53;1.50;;;;;;;;;;5071957;28;20048;-62
2023/08/09 03:35:57;;;;;;;1.57;1.10;;;;;;;;;;5069162;28;20100;-62
2023/08/09 03:38:23;;;;;;;4.33;1.70;;;;;;;;;;5065946;28;20028;-63
2023/08/09 03:40:50;;;;;;;2.50;1.50;;;;;;;;;;5066555;28;20044;-62
2023/08/09 03:43:17;;;;;;;2.30;1.63;;;;;;;;;;5066222;28;20022;-62
2023/08/09 03:45:44;;;;;;;1.27;0.90;;;;;;;;;;5068427;28;20024;-62
2023/08/09 03:48:11;;;;;;;2.03;1.50;;;;;;;;;;5071479;28;20475;-62
2023/08/09 03:50:38;;;;;;;1.93;1.37;;;;;;;;;;5074812;28;20025;-63
2023/08/09 03:53:05;;;;;;;1.63;1.30;;;;;;;;;;5075164;28;20025;-62
2023/08/09 03:55:32;;;;;;;2.90;1.90;;;;;;;;;;5075445;28;20436;-62
2023/08/09 03:57:58;;;;;;;2.37;1.30;;;;;;;;;;5072892;28;20707;-62
2023/08/09 04:00:26;;;;;;;2.33;1.53;;;;;;;;;;5069901;28;20681;-62
2023/08/09 04:02:53;;;;;;;3.60;1.70;;;;;;;;;;5069763;28;20024;-62
2023/08/09 04:05:19;;;;;;;1.80;1.10;;;;;;;;;;5069984;28;20471;-62
2023/08/09 04:07:47;;;;;;;2.97;1.10;;;;;;;;;;5070644;28;20024;-62
2023/08/09 04:10:13;;;;;;;1.40;0.97;;;;;;;;;;5075158;28;20021;-62
2023/08/09 04:12:40;;;;;;;2.63;1.77;;;;;;;;;;5057426;28;20394;-62
2023/08/09 04:15:08;;;;;;;4.20;2.40;;;;;;;;;;5075151;28;20078;-62
2023/08/09 04:17:34;;;;;;;2.70;1.33;;;;;;;;;;5074259;28;20077;-62
2023/08/09 04:20:02;;;;;;;1.60;1.10;;;;;;;;;;5072529;28;20429;-62
2023/08/09 04:22:29;;;;;;;19.33;1.90;;;;;;;;;;5069546;28;20028;-62
2023/08/09 04:24:56;;;;;;;4.03;1.90;;;;;;;;;;5069426;28;20024;-62
2023/08/09 04:27:22;;;;;;;4.63;1.43;;;;;;;;;;5069256;28;20053;-62
2023/08/09 04:29:49;;;;;;;1.90;1.37;;;;;;;;;;5070862;28;20048;-62
2023/08/09 04:32:16;;;;;;;1.50;1.13;;;;;;;;;;5074657;28;20498;-62
2023/08/09 04:34:43;;;;;;;2.73;1.70;;;;;;;;;;5074828;28;20082;-61
2023/08/09 04:37:10;;;;;;;1.83;1.33;;;;;;;;;;5074501;28;20409;-61
2023/08/09 04:39:37;;;;;;;2.73;1.50;;;;;;;;;;5074290;28;20025;-62
2023/08/09 04:42:04;;;;;;;15.97;1.63;;;;;;;;;;5072963;28;20036;-62
2023/08/09 04:44:31;;;;;;;3.43;1.47;;;;;;;;;;5069102;28;20044;-62
2023/08/09 04:46:58;;;;;;;1.53;1.23;;;;;;;;;;5069034;28;20421;-61
2023/08/09 04:49:26;;;;;;;2.50;1.40;;;;;;;;;;5069155;28;20043;-61
2023/08/09 04:51:53;;;;;;;2.20;1.60;;;;;;;;;;5069855;28;20033;-62
2023/08/09 04:54:20;;;;;;;4.57;1.60;;;;;;;;;;5074060;28;20033;-62
2023/08/09 04:56:47;;;;;;;4.27;1.73;;;;;;;;;;5074349;28;20418;-62
2023/08/09 04:59:14;;;;;;;2.20;1.43;;;;;;;;;;5056305;28;20028;-62
2023/08/09 05:01:41;;;;;;;1.40;1.10;;;;;;;;;;5073581;28;20028;-62
2023/08/09 05:04:08;;;;;;;2.67;1.57;;;;;;;;;;5072410;28;20101;-62
2023/08/09 05:06:35;;;;;;;1.73;1.17;;;;;;;;;;5068346;28;20379;-62
2023/08/09 05:09:02;;;;;;;2.90;2.10;;;;;;;;;;5068320;28;20032;-61
2023/08/09 05:11:28;;;;;;;2.80;1.60;;;;;;;;;;5068596;28;20033;-62
2023/08/09 05:13:55;;;;;;;3.43;1.97;;;;;;;;;;5069562;28;20031;-62
2023/08/09 05:16:24;;;;;;;4.43;1.83;;;;;;;;;;5073839;28;20059;-62
2023/08/09 05:18:51;;;;;;;1.60;1.10;;;;;;;;;;5073541;28;20028;-63
2023/08/09 05:21:18;;;;;;;1.70;1.20;;;;;;;;;;5073890;28;20496;-62
2023/08/09 05:23:45;;;;;;;7.57;1.73;;;;;;;;;;5073461;28;20017;-62
2023/08/09 05:26:12;;;;;;;6.90;1.87;;;;;;;;;;5072578;28;20075;-62
2023/08/09 05:28:38;;;;;;;2.20;1.37;;;;;;;;;;5068339;28;20029;-61
2023/08/09 05:31:05;;;;;;;1.10;0.80;;;;;;;;;;5067904;28;20048;-62
2023/08/09 05:33:32;;;;;;;1.90;1.70;;;;;;;;;;5068369;28;20023;-62
2023/08/09 05:35:59;;;;;;;2.47;1.53;;;;;;;;;;5068801;28;20048;-62
2023/08/09 05:38:26;;;;;;;1.87;1.30;;;;;;;;;;5055324;28;20032;-62
2023/08/09 05:40:53;;;;;;;3.00;1.60;;;;;;;;;;5073106;28;20395;-62
2023/08/09 05:43:20;;;;;;;1.50;1.07;;;;;;;;;;5073021;28;20569;-62
2023/08/09 05:45:47;;;;;;;4.50;1.70;;;;;;;;;;5073437;28;20024;-62
2023/08/09 05:48:14;;;;;;;1.10;0.90;;;;;;;;;;5072219;28;20036;-63
2023/08/09 05:50:40;;;;;;;2.73;1.47;;;;;;;;;;5067848;28;20024;-62
2023/08/09 05:53:09;;;;;;;2.17;1.63;;;;;;;;;;5067853;28;20020;-62
2023/08/09 05:55:36;;;;;;;3.47;1.27;;;;;;;;;;5067367;28;20032;-62
2023/08/09 05:58:03;;;;;;;1.40;1.07;;;;;;;;;;5068182;28;20048;-62
2023/08/09 06:00:30;;;;;;;3.17;1.57;;;;;;;;;;5073141;28;20055;-61
2023/08/09 06:02:57;;;;;;;1.63;1.07;;;;;;;;;;5073201;28;20017;-62
2023/08/09 06:05:25;;;;;;;1.30;1.10;;;;;;;;;;5072956;28;20048;-61
2023/08/09 06:07:52;;;;;;;1.30;0.90;;;;;;;;;;5072111;28;20020;-62
2023/08/09 06:10:25;;;;;;;7.63;1.70;;;;;;;;;;5071418;28;20436;-62
2023/08/09 06:12:55;;;;;;;1.43;1.17;;;;;;;;;;5066840;28;20108;-62
2023/08/09 06:15:21;;;;;;;3.80;1.60;;;;;;;;;;5067344;28;20028;-62
2023/08/09 06:17:48;;;;;;;8.00;1.57;;;;;;;;;;5067139;28;20506;-62
2023/08/09 06:20:16;;;;;;;1.67;1.33;;;;;;;;;;5067734;28;20052;-62
2023/08/09 06:22:43;;;;;;;1.57;1.20;;;;;;;;;;5072211;28;20027;-61
2023/08/09 06:25:10;;;;;;;2.90;1.17;;;;;;;;;;5072727;28;20103;-61
2023/08/09 06:27:37;;;;;;;4.97;1.13;;;;;;;;;;5072764;28;20017;-62
2023/08/09 06:30:04;;;;;;;1.77;0.93;;;;;;;;;;5072257;28;20028;-63
2023/08/09 06:32:31;;;;;;;1.33;0.80;;;;;;;;;;5071331;28;20487;-62
2023/08/09 06:34:58;;;;;;;2.37;0.90;;;;;;;;;;5067041;28;20046;-62
2023/08/09 06:37:24;;;;;;;1.33;1.10;;;;;;;;;;5067170;28;20039;-61
2023/08/09 06:39:51;;;;;;;2.57;1.33;;;;;;;;;;5067136;28;20112;-61
2023/08/09 06:42:18;;;;;;;19.00;2.00;;;;;;;;;;5067157;28;20446;-62
2023/08/09 06:44:45;;;;;;;1.00;0.80;;;;;;;;;;5072511;28;20021;-62
2023/08/09 06:47:12;;;;;;;3.57;1.40;;;;;;;;;;5072012;28;20029;-62
2023/08/09 06:49:38;;;;;;;2.00;1.33;;;;;;;;;;5072239;28;20039;-62
2023/08/09 06:52:05;;;;;;;1.43;0.73;;;;;;;;;;5072227;28;20024;-62
2023/08/09 06:54:32;;;;;;;1.53;1.10;;;;;;;;;;5071352;28;20486;-62
2023/08/09 06:56:59;;;;;;;2.60;0.87;;;;;;;;;;5048649;28;20159;-63
2023/08/09 06:59:26;;;;;;;30.37;1.40;;;;;;;;;;5066806;28;20025;-62
2023/08/09 07:01:53;;;;;;;0.77;0.50;;;;;;;;;;5066690;28;20153;-62
2023/08/09 07:04:19;;;;;;;1.43;0.93;;;;;;;;;;5066801;28;20039;-62
2023/08/09 07:06:46;;;;;;;4.37;1.53;;;;;;;;;;5071644;28;20371;-62
2023/08/09 07:09:13;;;;;;;1.30;1.00;;;;;;;;;;5071904;28;20021;-62
2023/08/09 07:11:40;;;;;;;1.27;0.83;;;;;;;;;;5072154;28;20395;-62
2023/08/09 07:14:07;;;;;;;0.97;0.77;;;;;;;;;;5072179;28;20098;-62
2023/08/09 07:16:34;;;;;;;0.53;0.53;;;;;;;;;;5071406;28;20037;-61
2023/08/09 07:19:00;;;;;;;0.50;0.43;;;;;;;;;;5066398;28;20086;-62
2023/08/09 07:21:27;;;;;;;3.40;1.00;;;;;;;;;;5066719;28;20029;-61
2023/08/09 07:23:54;;;;;;;2.77;1.23;;;;;;;;;;5068581;28;20111;-62
2023/08/09 07:26:21;;;;;;;1.70;0.97;;;;;;;;;;5070754;28;20025;-62
2023/08/09 07:28:48;;;;;;;4.90;1.57;;;;;;;;;;5075426;28;20099;-61
2023/08/09 07:31:20;;;;;;;1.63;0.83;;;;;;;;;;5075858;28;20078;-62
2023/08/09 07:33:48;;;;;;;2.87;0.93;;;;;;;;;;5075870;28;20044;-62
2023/08/09 07:36:15;;;;;;;1.10;0.80;;;;;;;;;;5075922;28;20021;-61
2023/08/09 07:38:42;;;;;;;8.00;0.93;;;;;;;;;;5075014;28;20029;-61
2023/08/09 07:41:10;;;;;;;1.43;1.03;;;;;;;;;;5069754;28;20032;-62
2023/08/09 07:43:37;;;;;;;3.07;0.90;;;;;;;;;;5070389;28;20090;-61
2023/08/09 07:46:05;;;;;;;3.73;1.30;;;;;;;;;;5070110;28;20029;-62
2023/08/09 07:48:33;;;;;;;2.00;1.07;;;;;;;;;;5070025;28;20020;-61
2023/08/09 07:51:00;;;;;;;1.50;0.97;;;;;;;;;;5075474;28;20443;-62
2023/08/09 07:53:27;;;;;;;1.70;0.77;;;;;;;;;;5057053;28;20024;-62
2023/08/09 07:55:53;;;;;;;0.90;0.80;;;;;;;;;;5075333;28;20445;-61
2023/08/09 07:58:20;;;;;;;0.97;0.70;;;;;;;;;;5075123;28;20378;-62
2023/08/09 08:00:47;;;;;;;3.10;0.83;;;;;;;;;;5074979;28;20021;-62
2023/08/09 08:03:14;;;;;;;1.43;1.00;;;;;;;;;;5069816;28;20029;-62
2023/08/09 08:05:41;;;;;;;0.80;0.60;;;;;;;;;;5069950;28;20024;-61
2023/08/09 08:08:07;;;;;;;1.53;0.93;;;;;;;;;;5069195;28;20115;-61
2023/08/09 08:10:34;;;;;;;7.93;1.23;;;;;;;;;;5069479;28;20033;-62
2023/08/09 08:13:01;;;;;;;2.13;0.70;;;;;;;;;;5075212;28;20013;-61
2023/08/09 08:15:28;;;;;;;0.70;0.60;;;;;;;;;;5074930;28;20379;-61
2023/08/09 08:17:55;;;;;;;1.37;0.80;;;;;;;;;;5074969;28;20471;-63
2023/08/09 08:20:22;;;;;;;1.73;0.93;;;;;;;;;;5074659;28;20059;-62
2023/08/09 08:22:50;;;;;;;0.77;0.53;;;;;;;;;;5074596;28;20032;-61
2023/08/09 08:25:17;;;;;;;1.67;0.93;;;;;;;;;;5069549;28;20100;-61
2023/08/09 08:27:45;;;;;;;1.23;0.73;;;;;;;;;;5069381;28;20036;-61
2023/08/09 08:30:18;;;;;;;1.57;0.93;;;;;;;;;;5069247;28;20033;-62
2023/08/09 08:32:46;;;;;;;10.00;1.03;;;;;;;;;;5068836;28;20064;-62
2023/08/09 08:35:13;;;;;;;0.87;0.63;;;;;;;;;;5073429;28;20081;-61
2023/08/09 08:37:41;;;;;;;4.17;1.27;;;;;;;;;;5074743;28;20055;-62
2023/08/09 08:40:09;;;;;;;1.70;0.70;;;;;;;;;;5074605;28;20475;-61
2023/08/09 08:42:36;;;;;;;1.43;0.53;;;;;;;;;;5074617;28;20013;-62
2023/08/09 08:45:10;;;;;;;1.30;0.90;;;;;;;;;;5074083;28;20154;-61
2023/08/09 08:47:46;;;;;;;2.63;1.00;;;;;;;;;;5069064;28;20688;-61
2023/08/09 08:50:14;;;;;;;0.83;0.77;;;;;;;;;;5069233;28;20028;-61
2023/08/09 08:52:43;;;;;;;1.00;0.73;;;;;;;;;;5069118;28;20054;-62
2023/08/09 08:55:10;;;;;;;3.87;1.20;;;;;;;;;;5069311;28;20137;-61
2023/08/09 08:57:38;;;;;;;1.40;0.97;;;;;;;;;;5074034;28;20020;-61
2023/08/09 09:00:08;;;;;;;1.03;0.77;;;;;;;;;;5074126;28;20142;-61
2023/08/09 09:02:36;;;;;;;2.20;1.27;;;;;;;;;;5073982;28;20095;-61
2023/08/09 09:05:06;;;;;;;2.67;1.10;;;;;;;;;;5073887;28;20032;-61
2023/08/09 09:07:33;;;;;;;1.47;0.73;;;;;;;;;;5072937;28;20033;-61
2023/08/09 09:10:01;;;;;;;1.07;0.90;;;;;;;;;;5068315;28;20518;-61
2023/08/09 09:12:27;;;;;;;1.33;1.10;;;;;;;;;;5068509;28;20064;-62
2023/08/09 09:14:54;;;;;;;0.63;0.53;;;;;;;;;;5068382;28;20021;-61
2023/08/09 09:17:21;;;;;;;3.17;1.27;;;;;;;;;;5069133;28;20024;-61
2023/08/09 09:19:48;;;;;;;1.43;0.77;;;;;;;;;;5074089;28;20024;-61
2023/08/09 09:22:29;;;;;;;4.27;1.47;;;;;;;;;;5073362;28;20532;-61
2023/08/09 09:25:00;;;;;;;6.33;1.07;;;;;;;;;;5073829;28;20104;-61
2023/08/09 09:27:31;;;;;;;0.97;0.70;;;;;;;;;;5073460;28;20100;-62
2023/08/09 09:30:11;;;;;;;1.90;1.07;;;;;;;;;;5053851;28;20025;-61
2023/08/09 09:32:55;;;;;;;0.93;0.73;;;;;;;;;;5067949;28;20028;-61
2023/08/09 09:35:22;;;;;;;0.60;0.60;;;;;;;;;;5067921;28;20412;-61
2023/08/09 09:37:50;;;;;;;1.13;0.90;;;;;;;;;;5068135;28;20024;-61
2023/08/09 09:40:31;;;;;;;1.70;1.20;;;;;;;;;;5070293;28;20082;-61
2023/08/09 09:42:59;;;;;;;1.23;1.00;;;;;;;;;;5073195;28;20017;-61
2023/08/09 09:45:27;;;;;;;6.20;1.13;;;;;;;;;;5073182;28;20029;-61
2023/08/09 09:47:54;;;;;;;1.17;0.90;;;;;;;;;;5073315;28;20372;-60
2023/08/09 09:50:22;;;;;;;1.77;1.10;;;;;;;;;;5073363;28;20024;-61
2023/08/09 09:52:52;;;;;;;0.77;0.73;;;;;;;;;;5069883;28;20047;-61
2023/08/09 09:55:26;;;;;;;3.53;1.30;;;;;;;;;;5067527;28;20025;-61
2023/08/09 09:57:54;;;;;;;4.70;1.23;;;;;;;;;;5067327;28;20029;-61
2023/08/09 10:00:22;;;;;;;3.50;0.97;;;;;;;;;;5067801;28;20430;-62
2023/08/09 10:02:52;;;;;;;1.07;0.97;;;;;;;;;;5070937;28;20044;-61
2023/08/09 10:05:20;;;;;;;1.57;0.90;;;;;;;;;;5073085;28;20098;-61
2023/08/09 10:07:47;;;;;;;8.57;1.20;;;;;;;;;;5072819;28;20029;-61
2023/08/09 10:10:14;;;;;;;2.40;1.43;;;;;;;;;;5072940;28;20039;-61
2023/08/09 10:13:09;;;;;;;1.87;1.03;;;;;;;;;;5072217;28;20028;-61
2023/08/09 10:15:38;;;;;;;1.40;0.97;;;;;;;;;;5064851;28;20036;-61
2023/08/09 10:18:25;;;;;;;1.13;0.80;;;;;;;;;;5067193;28;20074;-61
2023/08/09 10:20:55;;;;;;;11.23;1.83;;;;;;;;;;5067452;28;20021;-61
2023/08/09 10:23:24;;;;;;;0.70;0.70;;;;;;;;;;5067292;28;20109;-60
2023/08/09 10:25:52;;;;;;;2.67;1.03;;;;;;;;;;5072640;28;20391;-62
2023/08/09 10:28:19;;;;;;;0.77;0.77;;;;;;;;;;5072787;28;20427;-61
2023/08/09 10:30:47;;;;;;;2.87;1.70;;;;;;;;;;5071697;28;20029;-61
2023/08/09 10:33:20;;;;;;;0.77;0.63;;;;;;;;;;5072684;28;20131;-61
2023/08/09 10:35:49;;;;;;;1.93;0.93;;;;;;;;;;5071927;28;20383;-61
2023/08/09 10:38:17;;;;;;;7.20;1.20;;;;;;;;;;5067143;28;20511;-61
2023/08/09 10:40:44;;;;;;;0.67;0.57;;;;;;;;;;5067166;28;20064;-61
2023/08/09 10:43:17;;;;;;;1.63;1.10;;;;;;;;;;5066295;28;20029;-61
2023/08/09 10:45:46;;;;;;;1.53;1.20;;;;;;;;;;5067428;28;20156;-61
2023/08/09 10:48:23;;;;;;;2.83;1.00;;;;;;;;;;5072101;28;20119;-61
2023/08/09 10:51:08;;;;;;;1.93;1.20;;;;;;;;;;5072289;28;20078;-61
2023/08/09 10:53:53;;;;;;;1.27;1.05;;;;;;;;;;5072082;28;20032;-61
2023/08/09 10:56:39;;;;;;;1.13;0.93;;;;;;;;;;5072343;28;20060;-61
2023/08/09 10:59:12;;;;;;;1.93;1.23;;;;;;;;;;5068531;28;20025;-60
2023/08/09 11:01:40;;;;;;;1.70;1.10;;;;;;;;;;5067088;28;20838;-61
2023/08/09 11:04:12;;;;;;;3.70;0.83;;;;;;;;;;5066670;28;20031;-61
2023/08/09 11:06:42;;;;;;;1.60;1.13;;;;;;;;;;5066523;28;20043;-61
2023/08/09 11:09:27;;;;;;;1.03;0.93;;;;;;;;;;5069509;28;20056;-61
2023/08/09 11:11:54;;;;;;;3.53;1.98;;;;;;;;;;5072118;28;20032;-61
2023/08/09 11:14:22;;;;;;;2.93;1.37;;;;;;;;;;5072088;28;20027;-61
2023/08/09 11:16:50;;;;;;;1.13;0.90;;;;;;;;;;5071683;28;20048;-61
2023/08/09 11:19:17;;;;;;;1.37;1.00;;;;;;;;;;5070259;28;20043;-61
2023/08/09 11:21:52;;;;;;;2.53;1.00;;;;;;;;;;5067182;28;20094;-61
2023/08/09 11:24:24;;;;;;;2.72;0.73;;;;;;;;;;5066593;28;20472;-61
2023/08/09 11:26:55;;;;;;;4.17;1.00;;;;;;;;;;5048647;28;20028;-61
2023/08/09 11:29:23;;;;;;;1.23;0.93;;;;;;;;;;5066350;28;20028;-61
2023/08/09 11:31:51;;;;;;;2.17;1.30;;;;;;;;;;5070838;28;20070;-60
2023/08/09 11:34:18;;;;;;;1.60;1.03;;;;;;;;;;5071951;28;20029;-61
2023/08/09 11:36:46;;;;;;;1.73;1.07;;;;;;;;;;5071939;28;20047;-60
2023/08/09 11:39:15;;;;;;;0.93;0.73;;;;;;;;;;5071756;28;20021;-61
2023/08/09 11:41:43;;;;;;;2.30;1.37;;;;;;;;;;5071537;28;20025;-61
2023/08/09 11:44:11;;;;;;;1.67;1.37;;;;;;;;;;5066187;28;20044;-62
2023/08/09 11:46:40;;;;;;;1.90;1.33;;;;;;;;;;5066473;28;20054;-61
2023/08/09 11:49:07;;;;;;;2.23;1.30;;;;;;;;;;5066397;28;20033;-61
2023/08/09 11:51:36;;;;;;;2.63;1.30;;;;;;;;;;5066305;28;20056;-61
2023/08/09 11:54:03;;;;;;;1.60;0.67;;;;;;;;;;5070674;28;20024;-61
2023/08/09 11:56:35;;;;;;;2.33;1.30;;;;;;;;;;5071626;28;20024;-61
2023/08/09 11:59:02;;;;;;;1.53;1.20;;;;;;;;;;5071762;28;20020;-61
2023/08/09 12:01:36;;;;;;;2.43;1.40;;;;;;;;;;5071732;28;20028;-61
2023/08/09 12:04:08;;;;;;;2.03;1.43;;;;;;;;;;5071083;28;20105;-61
2023/08/09 12:06:35;;;;;;;2.20;1.57;;;;;;;;;;5066124;28;20032;-61
2023/08/09 12:09:01;;;;;;;4.73;1.73;;;;;;;;;;5065967;28;20021;-60
2023/08/09 12:11:28;;;;;;;2.90;1.87;;;;;;;;;;5068604;28;20028;-61
2023/08/09 12:13:55;;;;;;;8.63;1.23;;;;;;;;;;5069427;28;20060;-62
2023/08/09 12:16:22;;;;;;;2.63;1.63;;;;;;;;;;5075196;28;20028;-61
2023/08/09 12:18:49;;;;;;;2.17;1.03;;;;;;;;;;5074554;28;20356;-61
2023/08/09 12:21:15;;;;;;;1.40;1.00;;;;;;;;;;5075018;28;20033;-61
2023/08/09 12:23:42;;;;;;;2.47;1.17;;;;;;;;;;5074903;28;20081;-61
2023/08/09 12:26:09;;;;;;;7.30;1.87;;;;;;;;;;5074520;28;20091;-61
2023/08/09 12:28:37;;;;;;;2.80;1.90;;;;;;;;;;5069366;28;20131;-62
2023/08/09 12:31:05;;;;;;;4.47;1.93;;;;;;;;;;5069095;28;20029;-61
2023/08/09 12:33:31;;;;;;;1.17;1.07;;;;;;;;;;5069447;28;20025;-61
2023/08/09 12:35:58;;;;;;;2.83;1.93;;;;;;;;;;5069512;28;20492;-61
2023/08/09 12:38:25;;;;;;;1.67;1.27;;;;;;;;;;5074377;28;20026;-61
2023/08/09 12:40:52;;;;;;;3.30;1.63;;;;;;;;;;5074697;28;20028;-62
2023/08/09 12:43:18;;;;;;;2.43;1.40;;;;;;;;;;5074215;28;20025;-61
2023/08/09 12:45:45;;;;;;;2.27;1.60;;;;;;;;;;5074294;28;20475;-61
2023/08/09 12:48:12;;;;;;;2.23;1.67;;;;;;;;;;5074439;28;20016;-61
2023/08/09 12:50:40;;;;;;;1.93;1.53;;;;;;;;;;5068954;28;20450;-62
2023/08/09 12:53:06;;;;;;;2.40;1.87;;;;;;;;;;5068542;28;20429;-61
2023/08/09 12:55:33;;;;;;;3.20;2.03;;;;;;;;;;5051162;28;20391;-61
2023/08/09 12:58:00;;;;;;;4.03;2.63;;;;;;;;;;5068964;28;20035;-61
2023/08/09 13:00:27;;;;;;;3.63;2.00;;;;;;;;;;5074244;28;20079;-61
2023/08/09 13:02:54;;;;;;;4.80;2.07;;;;;;;;;;5074197;28;20360;-61
2023/08/09 13:05:21;;;;;;;3.40;2.27;;;;;;;;;;5073935;28;20025;-61
2023/08/09 13:07:47;;;;;;;2.13;1.60;;;;;;;;;;5073695;28;20032;-61
2023/08/09 13:10:14;;;;;;;2.23;1.80;;;;;;;;;;5074158;28;20021;-61
2023/08/09 13:12:41;;;;;;;4.47;2.73;;;;;;;;;;5068628;28;20032;-61
2023/08/09 13:15:08;;;;;;;1.80;1.60;;;;;;;;;;5068705;28;20464;-61
2023/08/09 13:17:35;;;;;;;2.17;1.73;;;;;;;;;;5068213;28;20471;-62
2023/08/09 13:20:02;;;;;;;2.93;1.40;;;;;;;;;;5068441;28;20028;-62
2023/08/09 13:22:28;;;;;;;3.50;2.27;;;;;;;;;;5073081;28;20021;-61
2023/08/09 13:24:55;;;;;;;13.97;3.73;;;;;;;;;;5074011;28;20021;-61
2023/08/09 13:27:22;;;;;;;1.77;1.60;;;;;;;;;;5073679;28;20040;-62
2023/08/09 13:29:49;;;;;;;5.57;2.60;;;;;;;;;;5073769;28;20489;-61
2023/08/09 13:32:16;;;;;;;3.17;2.43;;;;;;;;;;5072901;28;20386;-61
2023/08/09 13:34:42;;;;;;;2.07;1.63;;;;;;;;;;5068105;28;20029;-61
2023/08/09 13:37:09;;;;;;;3.13;2.17;;;;;;;;;;5067656;28;20490;-61
2023/08/09 13:39:36;;;;;;;2.83;1.90;;;;;;;;;;5068151;28;20051;-61
2023/08/09 13:42:03;;;;;;;2.80;1.70;;;;;;;;;;5067959;28;20032;-61
2023/08/09 13:44:29;;;;;;;4.03;2.10;;;;;;;;;;5073163;28;20020;-62
2023/08/09 13:46:56;;;;;;;1.63;1.43;;;;;;;;;;5073480;28;20119;-62
2023/08/09 13:49:23;;;;;;;2.00;1.60;;;;;;;;;;5073136;28;20024;-62
2023/08/09 13:51:50;;;;;;;2.83;2.00;;;;;;;;;;5072809;28;20040;-62
2023/08/09 13:54:16;;;;;;;4.67;1.93;;;;;;;;;;5073075;28;20020;-61
2023/08/09 13:56:43;;;;;;;3.23;1.97;;;;;;;;;;5067512;28;20090;-63
2023/08/09 13:59:10;;;;;;;23.27;2.37;;;;;;;;;;5067864;28;20082;-62
2023/08/09 14:01:37;;;;;;;2.93;2.57;;;;;;;;;;5067773;28;20103;-62
2023/08/09 14:04:04;;;;;;;3.33;2.40;;;;;;;;;;5067638;28;20016;-63
2023/08/09 14:06:31;;;;;;;6.60;3.40;;;;;;;;;;5071638;28;20063;-62
2023/08/09 14:08:58;;;;;;;5.37;3.53;;;;;;;;;;5072877;28;20391;-62
2023/08/09 14:11:25;;;;;;;4.43;3.13;;;;;;;;;;5072836;28;20040;-62
2023/08/09 14:13:51;;;;;;;4.97;3.53;;;;;;;;;;5073008;28;20414;-62
2023/08/09 14:16:18;;;;;;;4.87;2.93;;;;;;;;;;5054934;28;20024;-61
2023/08/09 14:18:47;;;;;;;13.43;2.67;;;;;;;;;;5067249;28;20024;-62
2023/08/09 14:21:13;;;;;;;2.70;1.93;;;;;;;;;;5067007;28;20170;-61
2023/08/09 14:23:40;;;;;;;5.17;2.03;;;;;;;;;;5067313;28;20049;-61
2023/08/09 14:26:07;;;;;;;2.37;1.80;;;;;;;;;;5067171;28;20101;-61
2023/08/09 14:28:34;;;;;;;2.17;1.57;;;;;;;;;;5071427;28;20494;-62
2023/08/09 14:31:01;;;;;;;2.83;2.23;;;;;;;;;;5072761;28;20040;-61
2023/08/09 14:33:28;;;;;;;2.17;1.23;;;;;;;;;;5071911;28;20121;-62
2023/08/09 14:35:55;;;;;;;2.67;1.90;;;;;;;;;;5072531;28;20032;-62
2023/08/09 14:38:21;;;;;;;2.20;1.67;;;;;;;;;;5072290;28;20479;-62
2023/08/09 14:40:48;;;;;;;2.33;1.80;;;;;;;;;;5067303;28;20032;-61
2023/08/09 14:43:15;;;;;;;15.03;2.43;;;;;;;;;;5067195;28;20103;-62
2023/08/09 14:45:42;;;;;;;3.10;2.20;;;;;;;;;;5067025;28;20029;-61
2023/08/09 14:48:09;;;;;;;5.03;1.93;;;;;;;;;;5066423;28;20464;-62